ASN logo
Accident
Last updated: 20 October 2017
Statuts:Préliminaire
Date:mercredi 4 octobre 2017
Heure:16:16
Type/Sous-type:Silhouette image of generic DHC6 model; specific model in this crash may look slightly different
de Havilland Canada DHC-6 Twin Otter 300
Compagnie:Maldivian
Immatriculation: 8Q-ISB
Numéro de série: 655
Année de Fabrication: 1979-11-29 (37 years 11 months)
Equipage:victimes: 0 / à bord: 3
Passagers:victimes: 0 / à bord: 14
Total:victimes: 0 / à bord: 17
Dégats de l'appareil: Substantiels
Lieu de l'accident:de Malé-Velana International Airport (MLE) (   Les Maldives)
Phase de vol: A l'atterrissage (LDG)
Nature:Transport de Passagers Nat.
Aéroport de départ:Niyama Resort, Dhaalu atoll, Les Maldives
Aéroport de destination:Malé-Velana International Airport (MLE/VRMM), Les Maldives
Détails:
A de Havilland Canada DHC-6 Twin Otter seaplane sustained substantial damage in a landing accident in the Hulhumalé Lagoon near Malé-Velana International Airport, Maldives. All occupants survived the accident.
The aircraft was flying tourists from the Niyama Resort, Dhaalu atoll, back to Malé. It came to rest inverted, next to the Hulhumale - Hulhule Link Road which runs on the east side of the lagoon.

Weather conditions in the area were unstable with cumulonimbus clouds and associated passing rain showers.

Sources:
» english.sun.mv

METAR Weather report:
10:00 UTC / 15:00 local time:
VRMM 041000Z 25014KT 9999 SCT017 FEW018CB BKN270 30/25 Q1007 CB NW,NNW TEMPO 5000 -SHRA

11:00 UTC / 16:00 local time:
VRMM 041100Z 28013KT 9999 SCT017 FEW018CB BKN270 30/25 Q1007 CB NW NOSIG

12:00 UTC / 17:00 local time:
VRMM 041200Z 26014KT 9999 SCT017 FEW018CB BKN280 28/25 Q1008 RESHRA CB SE,S TEMPO 4000 SHRA


Photos

photo of de Havilland Canada DHC-6 Twin Otter 300 8Q-ISB
Add your photo of this accident or aircraft
 

Video, social media

Aircraft history
date registration operator remarks
29 Nov. 1979 9N-ABQ de Havilland Canada first flight
12 Dec. 1979 9N-ABQ Royal Nepal Airlines delivered
31 May 1997 9N-ABQ Royal Nepal Airlines Landing accident at Phaplu, Nepal
19 Aug. 2002 9N-ABQ Royal Nepal Airlines Landing accident at Nepalganj, Nepal
ca 2002 9N-ABQ Royal Nepal Airlines withdraw from use; stored at Kathmandu, Nepal
3 Jan. 2012 9N-ABQ Tara Air leased
19 Aug. 2012 9N-ABQ Tara Air Runway excrusion incident, Jomsom, Nepal
21 Sep. 2012 9N-ABQ Tara Air Ran into fence during takeoff Dolpa, Nepal
June 2015 9N-AKM Tara Air new registration
29 Jan. 2016 N106WF Aerostar Bravo Ltd registered
24 Oct. 2016 8Q-ISB Maldivian registered

Plan
Ce plan montre l'aéroport de départ ainsi que la supposée destination du vol. La ligne fixe reliant les deux aéroports n'est pas le plan de vol exact.
La distance entre Niyama Resort, Dhaalu atoll et Malé-Velana International Airport est de 180 km (112 miles).
Accident location: Approximate; accuracy within a few kilometers.

Les informations ci-dessus ne représentent pas l'opinion de la 'Flight Safety Foundation' ou de 'Aviation Safety Network' sur les causes de l'accident. Ces informations prélimimaires sont basées sur les faits tel qu'ils sont connus à ce jour.
languages: languages

Share